createdAt,value
2023-02-26T00:00:11.542Z,1010.38
2023-02-26T00:01:11.535Z,1010.40
2023-02-26T00:02:11.573Z,1010.42
2023-02-26T00:03:11.643Z,1010.46
2023-02-26T00:04:11.541Z,1010.49
2023-02-26T00:05:11.512Z,1010.48
2023-02-26T00:06:11.474Z,1010.49
2023-02-26T00:07:11.481Z,1010.48
2023-02-26T00:08:11.464Z,1010.45
2023-02-26T00:09:11.468Z,1010.49
2023-02-26T00:10:11.435Z,1010.57
2023-02-26T00:11:11.445Z,1010.54
2023-02-26T00:12:11.408Z,1010.53
2023-02-26T00:13:11.400Z,1010.59
2023-02-26T00:14:11.393Z,1010.62
2023-02-26T00:15:11.389Z,1010.60
2023-02-26T00:16:11.366Z,1010.66
2023-02-26T00:17:11.640Z,1010.68
2023-02-26T00:18:11.340Z,1010.67
2023-02-26T00:19:11.381Z,1010.69
2023-02-26T00:20:11.329Z,1010.75
2023-02-26T00:21:11.322Z,1010.68
2023-02-26T00:22:11.310Z,1010.72
2023-02-26T00:23:11.308Z,1010.76
2023-02-26T00:24:11.296Z,1010.79
2023-02-26T00:25:11.268Z,1010.81
2023-02-26T00:26:11.249Z,1010.85
2023-02-26T00:27:11.243Z,1010.86
2023-02-26T00:28:11.235Z,1010.84
2023-02-26T00:29:11.223Z,1010.90
2023-02-26T00:30:11.221Z,1010.86
2023-02-26T00:31:11.332Z,1010.90
2023-02-26T00:32:11.330Z,1010.90
2023-02-26T00:33:11.182Z,1010.92
2023-02-26T00:34:11.162Z,1010.96
2023-02-26T00:35:11.204Z,1010.98
2023-02-26T00:36:11.139Z,1011.00
2023-02-26T00:37:11.149Z,1011.07
2023-02-26T00:38:11.130Z,1011.04
2023-02-26T00:39:11.125Z,1011.04
2023-02-26T00:40:11.130Z,1011.03
2023-02-26T00:41:11.135Z,1011.07
2023-02-26T00:42:11.087Z,1011.11
2023-02-26T00:43:11.067Z,1011.11
2023-02-26T00:44:11.055Z,1011.17
2023-02-26T00:45:11.059Z,1011.18
2023-02-26T00:46:11.073Z,1011.19
2023-02-26T00:47:11.048Z,1011.19
2023-02-26T00:48:11.008Z,1011.21
2023-02-26T00:49:11.023Z,1011.15
2023-02-26T00:50:11.000Z,1011.18
2023-02-26T00:51:11.025Z,1011.20
2023-02-26T00:52:10.964Z,1011.18
2023-02-26T00:53:10.955Z,1011.19
2023-02-26T00:54:10.944Z,1011.22
2023-02-26T00:55:10.950Z,1011.16
2023-02-26T00:56:10.936Z,1011.19
2023-02-26T00:57:10.929Z,1011.18
2023-02-26T00:58:10.909Z,1011.16
2023-02-26T00:59:10.897Z,1011.20
2023-02-26T01:00:10.881Z,1011.20
2023-02-26T01:01:10.900Z,1011.20
2023-02-26T01:02:10.864Z,1011.22
2023-02-26T01:03:10.858Z,1011.22
2023-02-26T01:04:10.853Z,1011.21
2023-02-26T01:05:10.822Z,1011.27
2023-02-26T01:06:10.820Z,1011.31
2023-02-26T01:07:10.850Z,1011.32
2023-02-26T01:08:10.806Z,1011.36
2023-02-26T01:09:10.831Z,1011.37
2023-02-26T01:10:10.759Z,1011.33
2023-02-26T01:11:10.766Z,1011.40
2023-02-26T01:12:11.140Z,1011.38
2023-02-26T01:13:10.741Z,1011.41
2023-02-26T01:14:10.744Z,1011.38
2023-02-26T01:15:10.717Z,1011.41
2023-02-26T01:16:10.816Z,1011.44
2023-02-26T01:17:10.708Z,1011.46
2023-02-26T01:18:10.823Z,1011.46
2023-02-26T01:19:10.676Z,1011.48
2023-02-26T01:20:10.649Z,1011.50
2023-02-26T01:21:10.655Z,1011.52
2023-02-26T01:22:10.640Z,1011.52
2023-02-26T01:23:10.657Z,1011.54
2023-02-26T01:24:10.616Z,1011.47
2023-02-26T01:25:10.614Z,1011.54
2023-02-26T01:26:10.594Z,1011.52
2023-02-26T01:27:10.575Z,1011.51
2023-02-26T01:28:10.588Z,1011.57
2023-02-26T01:29:10.553Z,1011.54
2023-02-26T01:30:10.536Z,1011.55
2023-02-26T01:31:10.634Z,1011.54
2023-02-26T01:32:10.697Z,1011.52
2023-02-26T01:33:10.536Z,1011.60
2023-02-26T01:34:10.494Z,1011.62
2023-02-26T01:35:10.486Z,1011.55
2023-02-26T01:36:10.476Z,1011.57
2023-02-26T01:37:10.478Z,1011.55
2023-02-26T01:38:10.472Z,1011.56
2023-02-26T01:39:10.504Z,1011.61
2023-02-26T01:40:10.444Z,1011.56
2023-02-26T01:41:10.419Z,1011.55
2023-02-26T01:42:10.421Z,1011.59
2023-02-26T01:43:10.425Z,1011.58
2023-02-26T01:44:10.416Z,1011.53
2023-02-26T01:45:10.377Z,1011.52
2023-02-26T01:46:10.377Z,1011.52
2023-02-26T01:47:10.354Z,1011.53
2023-02-26T01:48:10.343Z,1011.51
2023-02-26T01:49:10.359Z,1011.51
2023-02-26T01:50:10.316Z,1011.50
2023-02-26T01:51:10.314Z,1011.48
2023-02-26T01:52:10.316Z,1011.45
2023-02-26T01:53:10.300Z,1011.50
2023-02-26T01:54:10.293Z,1011.52
2023-02-26T01:55:10.291Z,1011.45
2023-02-26T01:56:10.249Z,1011.47
2023-02-26T01:57:10.262Z,1011.43
2023-02-26T01:58:10.242Z,1011.42
2023-02-26T01:59:10.236Z,1011.46
2023-02-26T02:00:10.223Z,1011.47
2023-02-26T02:01:10.199Z,1011.37
2023-02-26T02:02:10.289Z,1011.38
2023-02-26T02:03:10.356Z,1011.41
2023-02-26T02:04:10.189Z,1011.40
2023-02-26T02:05:10.180Z,1011.34
2023-02-26T02:06:10.142Z,1011.34
2023-02-26T02:07:10.132Z,1011.35
2023-02-26T02:08:10.135Z,1011.39
2023-02-26T02:09:10.142Z,1011.40
2023-02-26T02:10:10.097Z,1011.47
2023-02-26T02:11:10.113Z,1011.49
2023-02-26T02:12:10.088Z,1011.47
2023-02-26T02:13:10.067Z,1011.51
2023-02-26T02:14:10.066Z,1011.49
2023-02-26T02:15:10.045Z,1011.52
2023-02-26T02:16:10.063Z,1011.50
2023-02-26T02:17:10.032Z,1011.48
2023-02-26T02:18:10.017Z,1011.50
2023-02-26T02:19:10.006Z,1011.53
2023-02-26T02:20:10.015Z,1011.55
2023-02-26T02:21:09.971Z,1011.55
2023-02-26T02:22:09.959Z,1011.57
2023-02-26T02:23:09.974Z,1011.57
2023-02-26T02:24:09.945Z,1011.57
2023-02-26T02:25:09.941Z,1011.53
2023-02-26T02:26:09.942Z,1011.52
2023-02-26T02:27:09.929Z,1011.55
2023-02-26T02:28:09.905Z,1011.58
2023-02-26T02:29:09.892Z,1011.60
2023-02-26T02:30:09.868Z,1011.63
2023-02-26T02:31:09.983Z,1011.60
2023-02-26T02:32:10.126Z,1011.58
2023-02-26T02:33:09.852Z,1011.62
2023-02-26T02:34:09.836Z,1011.64
2023-02-26T02:35:09.829Z,1011.68
2023-02-26T02:36:09.798Z,1011.64
2023-02-26T02:37:09.805Z,1011.64
2023-02-26T02:38:09.792Z,1011.67
2023-02-26T02:39:09.766Z,1011.70
2023-02-26T02:40:09.770Z,1011.68
2023-02-26T02:41:09.745Z,1011.73
2023-02-26T02:42:09.755Z,1011.73
2023-02-26T02:43:09.764Z,1011.74
2023-02-26T02:44:09.712Z,1011.75
2023-02-26T02:45:09.700Z,1011.78
2023-02-26T02:46:09.757Z,1011.73
2023-02-26T02:47:09.693Z,1011.77
2023-02-26T02:48:09.680Z,1011.81
2023-02-26T02:49:09.658Z,1011.77
2023-02-26T02:50:09.644Z,1011.77
2023-02-26T02:51:09.636Z,1011.79
2023-02-26T02:52:09.636Z,1011.80
2023-02-26T02:53:09.613Z,1011.79
2023-02-26T02:54:09.613Z,1011.80
2023-02-26T02:55:09.606Z,1011.83
2023-02-26T02:56:09.581Z,1011.85
2023-02-26T02:57:09.604Z,1011.82
2023-02-26T02:58:09.554Z,1011.86
2023-02-26T02:59:09.582Z,1011.88
2023-02-26T03:00:09.538Z,1011.93
2023-02-26T03:01:09.607Z,1011.94
2023-02-26T03:02:09.536Z,1011.93
2023-02-26T03:03:09.506Z,1011.95
2023-02-26T03:04:09.491Z,1011.96
2023-02-26T03:05:09.481Z,1011.93
2023-02-26T03:06:09.479Z,1011.96
2023-02-26T03:07:09.474Z,1011.98
2023-02-26T03:08:09.443Z,1011.99
2023-02-26T03:09:09.453Z,1012.06
2023-02-26T03:10:09.422Z,1012.05
2023-02-26T03:11:09.420Z,1012.09
2023-02-26T03:12:09.410Z,1012.07
2023-02-26T03:13:09.422Z,1012.11
2023-02-26T03:14:09.390Z,1012.12
2023-02-26T03:15:09.405Z,1012.09
2023-02-26T03:16:09.416Z,1012.12
2023-02-26T03:17:09.349Z,1012.15
2023-02-26T03:18:09.348Z,1012.19
2023-02-26T03:19:09.325Z,1012.19
2023-02-26T03:20:09.325Z,1012.19
2023-02-26T03:21:09.321Z,1012.15
2023-02-26T03:22:09.295Z,1012.18
2023-02-26T03:23:09.297Z,1012.16
2023-02-26T03:24:09.268Z,1012.16
2023-02-26T03:25:09.261Z,1012.18
2023-02-26T03:26:11.573Z,1012.20
2023-02-26T03:27:09.252Z,1012.24
2023-02-26T03:28:09.243Z,1012.25
2023-02-26T03:29:09.228Z,1012.26
2023-02-26T03:30:09.227Z,1012.23
2023-02-26T03:31:09.217Z,1012.28
2023-02-26T03:32:09.288Z,1012.30
2023-02-26T03:33:09.189Z,1012.27
2023-02-26T03:34:09.158Z,1012.31
2023-02-26T03:35:09.167Z,1012.33
2023-02-26T03:36:09.136Z,1012.36
2023-02-26T03:37:09.141Z,1012.39
2023-02-26T03:38:09.160Z,1012.42
2023-02-26T03:39:09.107Z,1012.41
2023-02-26T03:40:09.107Z,1012.44
2023-02-26T03:41:09.086Z,1012.42
2023-02-26T03:42:09.089Z,1012.42
2023-02-26T03:43:09.075Z,1012.44
2023-02-26T03:44:09.054Z,1012.42
2023-02-26T03:45:09.041Z,1012.48
2023-02-26T03:46:09.054Z,1012.50
2023-02-26T03:47:09.037Z,1012.46
2023-02-26T03:48:09.038Z,1012.49
2023-02-26T03:49:09.038Z,1012.52
2023-02-26T03:50:09.005Z,1012.53
2023-02-26T03:51:08.996Z,1012.55
2023-02-26T03:52:09.019Z,1012.59
2023-02-26T03:53:08.992Z,1012.60
2023-02-26T03:54:08.961Z,1012.58
2023-02-26T03:55:08.945Z,1012.60
2023-02-26T03:56:08.936Z,1012.64
2023-02-26T03:57:08.906Z,1012.71
2023-02-26T03:58:08.917Z,1012.70
2023-02-26T03:59:08.882Z,1012.73
2023-02-26T04:00:08.881Z,1012.74
2023-02-26T04:01:08.878Z,1012.71
2023-02-26T04:02:08.898Z,1012.70
2023-02-26T04:03:08.880Z,1012.70
2023-02-26T04:04:08.865Z,1012.75
2023-02-26T04:05:08.812Z,1012.82
2023-02-26T04:06:08.819Z,1012.81
2023-02-26T04:07:08.807Z,1012.83
2023-02-26T04:08:08.811Z,1012.82
2023-02-26T04:09:08.782Z,1012.80
2023-02-26T04:10:08.781Z,1012.77
2023-02-26T04:11:08.762Z,1012.83
2023-02-26T04:12:08.771Z,1012.80
2023-02-26T04:13:08.758Z,1012.80
2023-02-26T04:14:08.723Z,1012.83
2023-02-26T04:15:08.715Z,1012.83
2023-02-26T04:16:08.712Z,1012.87
2023-02-26T04:17:08.679Z,1012.87
2023-02-26T04:18:08.694Z,1012.88
2023-02-26T04:19:08.695Z,1012.88
2023-02-26T04:20:08.668Z,1012.85
2023-02-26T04:21:08.655Z,1012.83
2023-02-26T04:22:08.636Z,1012.81
2023-02-26T04:23:08.626Z,1012.79
2023-02-26T04:24:08.625Z,1012.79
2023-02-26T04:25:08.605Z,1012.81
2023-02-26T04:26:08.598Z,1012.81
2023-02-26T04:27:08.566Z,1012.81
2023-02-26T04:28:08.555Z,1012.85
2023-02-26T04:29:08.552Z,1012.86
2023-02-26T04:30:08.559Z,1012.85
2023-02-26T04:31:09.636Z,1012.82
2023-02-26T04:32:08.722Z,1012.80
2023-02-26T04:33:08.522Z,1012.80
2023-02-26T04:34:08.531Z,1012.83
2023-02-26T04:35:08.515Z,1012.84
2023-02-26T04:36:08.480Z,1012.83
2023-02-26T04:37:08.470Z,1012.88
2023-02-26T04:38:08.454Z,1012.89
2023-02-26T04:39:08.439Z,1012.84
2023-02-26T04:40:08.438Z,1012.86
2023-02-26T04:41:08.435Z,1012.82
2023-02-26T04:42:08.418Z,1012.89
2023-02-26T04:43:08.389Z,1012.89
2023-02-26T04:44:08.391Z,1012.98
2023-02-26T04:45:08.385Z,1012.91
2023-02-26T04:46:08.431Z,1012.97
2023-02-26T04:47:08.344Z,1012.98
2023-02-26T04:48:08.344Z,1012.98
2023-02-26T04:49:08.320Z,1013.05
2023-02-26T04:50:08.324Z,1013.02
2023-02-26T04:51:08.336Z,1013.03
2023-02-26T04:52:08.365Z,1013.06
2023-02-26T04:54:32.260Z,1013.07
2023-02-26T04:56:24.091Z,1013.12
2023-02-26T04:58:09.314Z,1013.15
2023-02-26T04:59:53.479Z,1013.14
2023-02-26T05:01:31.326Z,1013.22
2023-02-26T05:03:16.003Z,1013.27
2023-02-26T05:04:56.522Z,1013.36
2023-02-26T05:06:37.042Z,1013.41
2023-02-26T05:08:14.484Z,1013.36
2023-02-26T05:09:51.971Z,1013.39
2023-02-26T05:11:27.359Z,1013.39
2023-02-26T05:13:02.133Z,1013.37
2023-02-26T05:14:30.864Z,1013.39
2023-02-26T05:16:01.772Z,1013.38
2023-02-26T05:17:29.202Z,1013.45
2023-02-26T05:18:58.203Z,1013.46
2023-02-26T05:20:24.803Z,1013.49
2023-02-26T05:21:51.406Z,1013.53
2023-02-26T05:23:15.258Z,1013.58
2023-02-26T05:24:43.069Z,1013.55
2023-02-26T05:26:03.601Z,1013.56
2023-02-26T05:27:28.707Z,1013.56
2023-02-26T05:28:49.221Z,1013.59
2023-02-26T05:30:12.788Z,1013.64
2023-02-26T05:31:24.017Z,1013.69
2023-02-26T05:32:39.983Z,1013.70
2023-02-26T05:33:49.320Z,1013.72
2023-02-26T05:35:06.543Z,1013.75
2023-02-26T05:36:15.256Z,1013.78
2023-02-26T05:37:28.868Z,1013.85
2023-02-26T05:38:38.507Z,1013.85
2023-02-26T05:39:53.602Z,1013.86
2023-02-26T05:41:00.540Z,1013.88
2023-02-26T05:42:16.231Z,1013.89
2023-02-26T05:43:23.143Z,1013.87
2023-02-26T05:44:37.941Z,1013.89
2023-02-26T05:45:44.593Z,1013.92
2023-02-26T05:46:59.088Z,1013.84
2023-02-26T05:48:03.285Z,1013.88
2023-02-26T05:49:18.410Z,1013.90
2023-02-26T05:50:19.261Z,1013.91
2023-02-26T05:51:31.665Z,1013.90
2023-02-26T05:52:27.047Z,1013.97
2023-02-26T05:53:39.765Z,1013.95
2023-02-26T05:54:24.566Z,1013.93
2023-02-26T05:55:36.634Z,1014.00
2023-02-26T05:56:28.727Z,1014.00
2023-02-26T05:57:39.591Z,1014.03
2023-02-26T05:58:20.773Z,1014.04
2023-02-26T05:59:22.547Z,1014.06
2023-02-26T06:00:06.769Z,1014.09
2023-02-26T06:01:10.364Z,1014.12
2023-02-26T06:01:49.782Z,1014.05
2023-02-26T06:02:53.644Z,1014.07
2023-02-26T06:03:42.372Z,1014.09
2023-02-26T06:04:42.381Z,1014.11
2023-02-26T06:05:42.356Z,1014.16
2023-02-26T06:06:42.345Z,1014.19
2023-02-26T06:07:42.340Z,1014.17
2023-02-26T06:08:42.360Z,1014.18
2023-02-26T06:09:42.323Z,1014.22
2023-02-26T06:10:42.297Z,1014.22
2023-02-26T06:11:42.298Z,1014.15
2023-02-26T06:12:42.274Z,1014.13
2023-02-26T06:13:42.272Z,1014.14
2023-02-26T06:14:42.336Z,1014.14
2023-02-26T06:15:42.258Z,1014.16
2023-02-26T06:16:42.338Z,1014.15
2023-02-26T06:17:42.233Z,1014.22
2023-02-26T06:18:42.230Z,1014.23
2023-02-26T06:19:42.224Z,1014.21
2023-02-26T06:20:42.197Z,1014.25
2023-02-26T06:21:42.169Z,1014.22
2023-02-26T06:22:42.162Z,1014.19
2023-02-26T06:23:42.163Z,1014.24
2023-02-26T06:24:42.176Z,1014.19
2023-02-26T06:25:42.145Z,1014.23
2023-02-26T06:26:42.117Z,1014.26
2023-02-26T06:27:42.128Z,1014.29
2023-02-26T06:28:42.137Z,1014.31
2023-02-26T06:29:42.094Z,1014.30
2023-02-26T06:30:42.190Z,1014.36
2023-02-26T06:31:42.161Z,1014.38
2023-02-26T06:32:42.148Z,1014.39
2023-02-26T06:33:42.038Z,1014.44
2023-02-26T06:34:42.039Z,1014.45
2023-02-26T06:35:42.046Z,1014.43
2023-02-26T06:36:42.023Z,1014.48
2023-02-26T06:37:42.021Z,1014.44
2023-02-26T06:38:42.000Z,1014.45
2023-02-26T06:39:42.000Z,1014.48
2023-02-26T06:40:42.018Z,1014.48
2023-02-26T06:41:41.973Z,1014.52
2023-02-26T06:42:41.962Z,1014.53
2023-02-26T06:43:41.973Z,1014.50
2023-02-26T06:44:41.919Z,1014.55
2023-02-26T06:45:41.952Z,1014.54
2023-02-26T06:46:41.927Z,1014.54
2023-02-26T06:47:41.901Z,1014.59
2023-02-26T06:48:41.881Z,1014.63
2023-02-26T06:49:41.882Z,1014.70
2023-02-26T06:50:41.871Z,1014.71
2023-02-26T06:51:41.875Z,1014.71
2023-02-26T06:52:41.844Z,1014.75
2023-02-26T06:53:41.837Z,1014.76
2023-02-26T06:54:41.813Z,1014.77
2023-02-26T06:55:41.806Z,1014.83
2023-02-26T06:56:41.828Z,1014.84
2023-02-26T06:57:41.812Z,1014.88
2023-02-26T06:58:41.779Z,1014.90
2023-02-26T06:59:41.852Z,1014.93
2023-02-26T07:00:41.758Z,1014.93
2023-02-26T07:01:41.749Z,1014.97
2023-02-26T07:02:41.822Z,1015.00
2023-02-26T07:03:41.737Z,1015.03
2023-02-26T07:04:41.712Z,1015.05
2023-02-26T07:05:41.710Z,1015.10
2023-02-26T07:06:42.038Z,1015.09
2023-02-26T07:07:41.689Z,1015.13
2023-02-26T07:08:41.670Z,1015.18
2023-02-26T07:09:41.666Z,1015.19
2023-02-26T07:10:41.654Z,1015.25
2023-02-26T07:11:41.636Z,1015.20
2023-02-26T07:12:41.645Z,1015.22
2023-02-26T07:13:41.629Z,1015.22
2023-02-26T07:14:41.592Z,1015.21
2023-02-26T07:15:41.582Z,1015.23
2023-02-26T07:16:41.617Z,1015.22
2023-02-26T07:17:41.570Z,1015.22
2023-02-26T07:18:41.566Z,1015.30
2023-02-26T07:19:41.546Z,1015.36
2023-02-26T07:20:41.518Z,1015.38
2023-02-26T07:21:41.527Z,1015.39
2023-02-26T07:22:41.497Z,1015.35
2023-02-26T07:23:41.507Z,1015.42
2023-02-26T07:24:41.502Z,1015.37
2023-02-26T07:25:41.481Z,1015.37
2023-02-26T07:26:41.453Z,1015.38
2023-02-26T07:27:43.736Z,1015.43
2023-02-26T07:28:41.467Z,1015.43
2023-02-26T07:29:41.454Z,1015.47
2023-02-26T07:30:41.549Z,1015.48
2023-02-26T07:31:41.665Z,1015.50
2023-02-26T07:32:41.419Z,1015.45
2023-02-26T07:33:41.384Z,1015.46
2023-02-26T07:34:41.380Z,1015.52
2023-02-26T07:35:41.386Z,1015.49
2023-02-26T07:36:41.342Z,1015.56
2023-02-26T07:37:41.337Z,1015.54
2023-02-26T07:38:41.336Z,1015.63
2023-02-26T07:39:41.310Z,1015.71
2023-02-26T07:40:41.311Z,1015.70
2023-02-26T07:41:41.303Z,1015.72
2023-02-26T07:42:41.271Z,1015.70
2023-02-26T07:43:41.280Z,1015.74
2023-02-26T07:44:41.288Z,1015.75
2023-02-26T07:45:41.243Z,1015.73
2023-02-26T07:46:41.238Z,1015.76
2023-02-26T07:47:41.222Z,1015.76
2023-02-26T07:48:41.219Z,1015.78
2023-02-26T07:49:41.223Z,1015.77
2023-02-26T07:50:41.187Z,1015.79
2023-02-26T07:51:41.187Z,1015.83
2023-02-26T07:52:41.172Z,1015.85
2023-02-26T07:53:41.163Z,1015.89
2023-02-26T07:54:41.148Z,1015.84
2023-02-26T07:55:41.150Z,1015.87
2023-02-26T07:56:41.127Z,1015.84
2023-02-26T07:57:41.133Z,1015.89
2023-02-26T07:58:41.094Z,1015.93
2023-02-26T07:59:41.098Z,1015.89
2023-02-26T08:00:41.105Z,1015.92
2023-02-26T08:01:41.162Z,1015.90
2023-02-26T08:02:41.048Z,1015.91
2023-02-26T08:03:41.070Z,1015.98
2023-02-26T08:04:41.037Z,1015.97
2023-02-26T08:05:41.018Z,1015.97
2023-02-26T08:06:41.004Z,1015.99
2023-02-26T08:07:41.047Z,1015.99
2023-02-26T08:08:41.013Z,1015.97
2023-02-26T08:09:40.978Z,1015.97
2023-02-26T08:10:42.110Z,1015.93
2023-02-26T08:11:40.965Z,1016.00
2023-02-26T08:12:40.961Z,1016.03
2023-02-26T08:13:40.956Z,1016.06
2023-02-26T08:14:40.928Z,1016.02
2023-02-26T08:15:40.930Z,1016.04
2023-02-26T08:16:40.935Z,1016.01
2023-02-26T08:17:40.896Z,1016.04
2023-02-26T08:18:40.903Z,1016.06
2023-02-26T08:19:40.869Z,1016.04
2023-02-26T08:20:40.867Z,1016.01
2023-02-26T08:21:40.851Z,1016.04
2023-02-26T08:22:40.834Z,1016.01
2023-02-26T08:23:40.818Z,1016.02
2023-02-26T08:24:40.834Z,1016.02
2023-02-26T08:25:40.807Z,1016.03
2023-02-26T08:26:40.784Z,1016.08
2023-02-26T08:27:40.790Z,1016.08
2023-02-26T08:28:40.756Z,1016.13
2023-02-26T08:29:40.776Z,1016.13
2023-02-26T08:30:40.792Z,1016.04
2023-02-26T08:31:40.836Z,1016.10
2023-02-26T08:32:40.798Z,1016.08
2023-02-26T08:33:40.723Z,1016.13
2023-02-26T08:34:40.704Z,1016.09
2023-02-26T08:35:40.697Z,1016.07
2023-02-26T08:36:40.685Z,1016.10
2023-02-26T08:37:40.685Z,1016.07
2023-02-26T08:38:40.667Z,1016.10
2023-02-26T08:39:40.671Z,1016.09
2023-02-26T08:40:40.632Z,1016.11
2023-02-26T08:41:40.627Z,1016.06
2023-02-26T08:42:40.607Z,1016.09
2023-02-26T08:43:40.599Z,1016.11
2023-02-26T08:44:40.592Z,1016.10
2023-02-26T08:45:40.602Z,1016.13
2023-02-26T08:46:40.639Z,1016.13
2023-02-26T08:47:53.954Z,1016.14
2023-02-26T08:48:41.551Z,1016.18
2023-02-26T08:49:40.535Z,1016.18
2023-02-26T08:50:40.535Z,1016.16
2023-02-26T08:51:40.500Z,1016.21
2023-02-26T08:52:40.498Z,1016.21
2023-02-26T08:53:40.495Z,1016.23
2023-02-26T08:54:40.486Z,1016.25
2023-02-26T08:55:40.461Z,1016.26
2023-02-26T08:56:40.454Z,1016.21
2023-02-26T08:57:40.432Z,1016.22
2023-02-26T08:58:40.434Z,1016.21
2023-02-26T08:59:40.424Z,1016.26
2023-02-26T09:00:40.396Z,1016.24
2023-02-26T09:01:40.452Z,1016.28
2023-02-26T09:02:40.457Z,1016.29
2023-02-26T09:03:40.372Z,1016.32
2023-02-26T09:04:40.375Z,1016.34
2023-02-26T09:05:40.347Z,1016.37
2023-02-26T09:06:40.346Z,1016.38
2023-02-26T09:07:40.324Z,1016.39
2023-02-26T09:08:40.315Z,1016.44
2023-02-26T09:09:40.324Z,1016.42
2023-02-26T09:10:41.222Z,1016.43
2023-02-26T09:11:40.294Z,1016.45
2023-02-26T09:12:40.261Z,1016.45
2023-02-26T09:13:40.268Z,1016.44
2023-02-26T09:14:40.242Z,1016.47
2023-02-26T09:15:40.251Z,1016.50
2023-02-26T09:16:40.297Z,1016.50
2023-02-26T09:17:40.229Z,1016.52
2023-02-26T09:18:40.200Z,1016.52
2023-02-26T09:19:40.212Z,1016.57
2023-02-26T09:20:40.203Z,1016.57
2023-02-26T09:21:40.178Z,1016.57
2023-02-26T09:22:40.172Z,1016.51
2023-02-26T09:23:40.162Z,1016.57
2023-02-26T09:24:40.208Z,1016.56
2023-02-26T09:25:40.136Z,1016.63
2023-02-26T09:26:40.107Z,1016.60
2023-02-26T09:27:40.119Z,1016.57
2023-02-26T09:28:40.193Z,1016.54
2023-02-26T09:29:40.090Z,1016.56
2023-02-26T09:30:40.090Z,1016.62
2023-02-26T09:31:40.732Z,1016.54
2023-02-26T09:32:40.127Z,1016.50
2023-02-26T09:33:40.051Z,1016.54
2023-02-26T09:34:40.036Z,1016.60
2023-02-26T09:35:40.009Z,1016.59
2023-02-26T09:36:40.025Z,1016.57
2023-02-26T09:37:39.987Z,1016.66
2023-02-26T09:38:39.990Z,1016.66
2023-02-26T09:39:40.006Z,1016.71
2023-02-26T09:40:39.967Z,1016.72
2023-02-26T09:41:40.059Z,1016.66
2023-02-26T09:42:39.960Z,1016.70
2023-02-26T09:43:39.976Z,1016.77
2023-02-26T09:44:39.917Z,1016.76
2023-02-26T09:45:39.958Z,1016.76
2023-02-26T09:46:39.895Z,1016.81
2023-02-26T09:47:39.897Z,1016.76
2023-02-26T09:48:39.875Z,1016.78
2023-02-26T09:49:39.852Z,1016.86
2023-02-26T09:50:39.847Z,1016.86
2023-02-26T09:51:39.830Z,1016.81
2023-02-26T09:52:39.847Z,1016.79
2023-02-26T09:53:39.820Z,1016.87
2023-02-26T09:54:39.792Z,1016.83
2023-02-26T09:55:39.802Z,1016.87
2023-02-26T09:56:39.770Z,1016.86
2023-02-26T09:57:39.787Z,1016.86
2023-02-26T09:58:39.763Z,1016.92
2023-02-26T09:59:39.768Z,1016.88
2023-02-26T10:00:39.740Z,1016.89
2023-02-26T10:01:39.787Z,1016.97
2023-02-26T10:02:39.727Z,1016.98
2023-02-26T10:03:39.759Z,1016.85
2023-02-26T10:04:39.710Z,1016.92
2023-02-26T10:05:39.687Z,1016.86
2023-02-26T10:06:39.668Z,1016.96
2023-02-26T10:07:39.665Z,1016.94
2023-02-26T10:08:39.666Z,1016.97
2023-02-26T10:09:39.657Z,1016.96
2023-02-26T10:10:39.619Z,1016.93
2023-02-26T10:11:39.621Z,1016.94
2023-02-26T10:12:39.606Z,1017.00
2023-02-26T10:13:56.089Z,1017.07
2023-02-26T10:14:40.600Z,1017.01
2023-02-26T10:15:39.609Z,1017.04
2023-02-26T10:16:39.622Z,1017.02
2023-02-26T10:17:39.540Z,1017.00
2023-02-26T10:18:39.525Z,1017.12
2023-02-26T10:19:39.530Z,1017.09
2023-02-26T10:20:39.613Z,1017.12
2023-02-26T10:21:39.502Z,1017.14
2023-02-26T10:22:39.495Z,1016.97
2023-02-26T10:23:39.617Z,1017.18
2023-02-26T10:24:39.498Z,1017.11
2023-02-26T10:25:39.464Z,1017.17
2023-02-26T10:26:39.646Z,1017.24
2023-02-26T10:27:39.441Z,1017.10
2023-02-26T10:28:39.432Z,1017.17
2023-02-26T10:29:39.423Z,1017.25
2023-02-26T10:30:39.507Z,1017.27
2023-02-26T10:31:39.431Z,1017.25
2023-02-26T10:32:39.478Z,1017.27
2023-02-26T10:33:39.368Z,1017.28
2023-02-26T10:34:39.413Z,1017.37
2023-02-26T10:35:39.347Z,1017.28
2023-02-26T10:36:39.323Z,1017.25
2023-02-26T10:37:39.334Z,1017.36
2023-02-26T10:38:39.312Z,1017.36
2023-02-26T10:39:39.288Z,1017.45
2023-02-26T10:40:39.321Z,1017.38
2023-02-26T10:41:39.374Z,1017.40
2023-02-26T10:42:39.264Z,1017.39
2023-02-26T10:43:39.254Z,1017.34
2023-02-26T10:44:39.240Z,1017.38
2023-02-26T10:45:39.275Z,1017.42
2023-02-26T10:46:39.208Z,1017.41
2023-02-26T10:47:39.233Z,1017.41
2023-02-26T10:48:39.197Z,1017.41
2023-02-26T10:49:39.181Z,1017.45
2023-02-26T10:50:39.177Z,1017.46
2023-02-26T10:51:39.147Z,1017.48
2023-02-26T10:52:39.145Z,1017.41
2023-02-26T10:53:40.664Z,1017.43
2023-02-26T10:54:39.153Z,1017.39
2023-02-26T10:55:39.340Z,1017.45
2023-02-26T10:56:39.130Z,1017.48
2023-02-26T10:57:39.171Z,1017.46
2023-02-26T10:58:39.153Z,1017.46
2023-02-26T10:59:39.068Z,1017.46
2023-02-26T11:00:39.067Z,1017.49
2023-02-26T11:01:39.096Z,1017.49
2023-02-26T11:02:39.129Z,1017.60
2023-02-26T11:03:39.063Z,1017.51
2023-02-26T11:04:39.028Z,1017.47
2023-02-26T11:05:38.992Z,1017.57
2023-02-26T11:06:38.998Z,1017.55
2023-02-26T11:07:38.982Z,1017.56
2023-02-26T11:08:38.992Z,1017.53
2023-02-26T11:09:38.963Z,1017.56
2023-02-26T11:10:38.978Z,1017.55
2023-02-26T11:11:38.939Z,1017.63
2023-02-26T11:12:38.946Z,1017.65
2023-02-26T11:13:38.916Z,1017.66
2023-02-26T11:14:38.905Z,1017.61
2023-02-26T11:15:38.892Z,1017.60
2023-02-26T11:16:38.893Z,1017.58
2023-02-26T11:17:38.873Z,1017.57
2023-02-26T11:18:38.878Z,1017.63
2023-02-26T11:19:38.842Z,1017.68
2023-02-26T11:20:38.847Z,1017.59
2023-02-26T11:21:38.835Z,1017.58
2023-02-26T11:22:38.898Z,1017.60
2023-02-26T11:23:38.814Z,1017.67
2023-02-26T11:24:38.814Z,1017.69
2023-02-26T11:25:38.788Z,1017.68
2023-02-26T11:26:38.779Z,1017.69
2023-02-26T11:27:38.780Z,1017.72
2023-02-26T11:28:38.786Z,1017.72
2023-02-26T11:29:38.785Z,1017.71
2023-02-26T11:30:38.783Z,1017.71
2023-02-26T11:31:41.053Z,1017.72
2023-02-26T11:32:38.728Z,1017.72
2023-02-26T11:33:38.685Z,1017.74
2023-02-26T11:34:38.806Z,1017.74
2023-02-26T11:35:38.666Z,1017.73
2023-02-26T11:36:38.743Z,1017.80
2023-02-26T11:37:38.657Z,1017.76
2023-02-26T11:38:38.645Z,1017.69
2023-02-26T11:39:38.645Z,1017.74
2023-02-26T11:40:38.612Z,1017.81
2023-02-26T11:41:38.611Z,1017.73
2023-02-26T11:42:38.585Z,1017.76
2023-02-26T11:43:38.579Z,1017.69
2023-02-26T11:44:38.620Z,1017.70
2023-02-26T11:45:38.558Z,1017.72
2023-02-26T11:46:38.552Z,1017.74
2023-02-26T11:47:38.538Z,1017.77
2023-02-26T11:48:38.529Z,1017.71
2023-02-26T11:49:38.633Z,1017.75
2023-02-26T11:50:38.517Z,1017.70
2023-02-26T11:51:38.482Z,1017.70
2023-02-26T11:52:38.484Z,1017.70
2023-02-26T11:53:38.522Z,1017.66
2023-02-26T11:54:38.463Z,1017.73
2023-02-26T11:55:38.451Z,1017.75
2023-02-26T11:56:38.425Z,1017.69
2023-02-26T11:57:38.422Z,1017.70
2023-02-26T11:58:38.416Z,1017.69
2023-02-26T11:59:38.405Z,1017.62
2023-02-26T12:00:38.413Z,1017.65
2023-02-26T12:01:38.370Z,1017.66
2023-02-26T12:02:38.409Z,1017.66
2023-02-26T12:03:38.371Z,1017.63
2023-02-26T12:04:38.344Z,1017.63
2023-02-26T12:05:38.350Z,1017.54
2023-02-26T12:06:38.322Z,1017.60
2023-02-26T12:07:38.307Z,1017.58
2023-02-26T12:08:38.365Z,1017.56
2023-02-26T12:09:38.275Z,1017.56
2023-02-26T12:10:38.299Z,1017.51
2023-02-26T12:11:38.261Z,1017.51
2023-02-26T12:12:38.244Z,1017.52
2023-02-26T12:13:38.240Z,1017.53
2023-02-26T12:14:38.217Z,1017.54
2023-02-26T12:15:38.250Z,1017.53
2023-02-26T12:16:38.241Z,1017.52
2023-02-26T12:17:38.208Z,1017.46
2023-02-26T12:18:38.193Z,1017.50
2023-02-26T12:19:38.177Z,1017.47
2023-02-26T12:20:38.168Z,1017.49
2023-02-26T12:21:38.166Z,1017.52